createdAt,value
2023-03-24T00:01:07.141Z,8.6
2023-03-24T00:06:13.470Z,8.9
2023-03-24T00:11:18.977Z,8.6
2023-03-24T00:16:25.248Z,8.6
2023-03-24T00:21:31.530Z,8.6
2023-03-24T00:26:38.036Z,8.6
2023-03-24T00:31:44.208Z,8.6
2023-03-24T00:36:50.516Z,8.6
2023-03-24T00:41:56.840Z,8.9
2023-03-24T00:47:03.196Z,8.6
2023-03-24T00:52:09.496Z,8.9
2023-03-24T00:57:15.807Z,8.3
2023-03-24T01:02:22.174Z,8.6
2023-03-24T01:07:28.531Z,8.6
2023-03-24T01:12:34.942Z,8.3
2023-03-24T01:22:46.680Z,8.9
2023-03-24T01:27:52.917Z,8.3
2023-03-24T01:32:59.220Z,8
2023-03-24T01:38:05.663Z,8.3
2023-03-24T01:43:11.956Z,8.3
2023-03-24T01:48:18.317Z,8.3
2023-03-24T01:53:24.705Z,8.6
2023-03-24T01:58:30.983Z,8.3
2023-03-24T02:03:37.151Z,8.6
2023-03-24T02:08:43.550Z,8.3
2023-03-24T02:13:49.803Z,8.6
2023-03-24T02:18:56.290Z,8.6
2023-03-24T02:24:01.720Z,8.6
2023-03-24T02:29:07.919Z,8.6
2023-03-24T02:34:14.358Z,8.6
2023-03-24T02:39:20.535Z,8.6
2023-03-24T02:44:26.864Z,8.6
2023-03-24T02:49:33.220Z,8.3
2023-03-24T02:54:39.552Z,8.3
2023-03-24T02:59:45.976Z,8.6
2023-03-24T03:04:52.147Z,8.6
2023-03-24T03:09:58.686Z,8.3
2023-03-24T03:15:04.787Z,8.3
2023-03-24T03:20:11.139Z,8.3
2023-03-24T03:25:17.454Z,8
2023-03-24T03:30:23.832Z,8.3
2023-03-24T03:35:30.109Z,8.3
2023-03-24T03:40:35.661Z,8.3
2023-03-24T03:45:42.025Z,8.6
2023-03-24T03:50:48.239Z,8.6
2023-03-24T03:55:54.531Z,8.6
2023-03-24T04:01:00.968Z,8.6
2023-03-24T04:06:07.226Z,8.3
2023-03-24T04:11:13.496Z,8.3
2023-03-24T04:16:19.074Z,8.3
2023-03-24T04:21:25.277Z,8.3
2023-03-24T04:26:31.602Z,8
2023-03-24T04:31:37.916Z,8.3
2023-03-24T04:36:44.225Z,8.6
2023-03-24T04:41:50.624Z,8.6
2023-03-24T04:46:56.881Z,8.3
2023-03-24T04:52:03.208Z,8.3
2023-03-24T04:57:09.597Z,8.3
2023-03-24T05:02:15.840Z,8.6
2023-03-24T05:07:22.263Z,8.3
2023-03-24T05:12:28.533Z,8.3
2023-03-24T05:17:34.817Z,8.3
2023-03-24T05:22:40.279Z,8.3
2023-03-24T05:27:46.601Z,8
2023-03-24T05:32:52.980Z,8.3
2023-03-24T05:37:59.260Z,8.3
2023-03-24T05:43:05.596Z,8.3
2023-03-24T05:48:11.908Z,8.9
2023-03-24T05:53:18.220Z,8.3
2023-03-24T05:58:24.546Z,8.3
2023-03-24T06:03:30.856Z,8.3
2023-03-24T06:08:37.195Z,8.3
2023-03-24T06:13:43.524Z,8.6
2023-03-24T06:18:49.850Z,8
2023-03-24T06:23:56.166Z,8.3
2023-03-24T06:29:01.609Z,8.3
2023-03-24T06:34:07.923Z,8
2023-03-24T06:39:14.300Z,8.3
2023-03-24T06:44:20.579Z,8.3
2023-03-24T06:49:26.922Z,8.3
2023-03-24T06:54:33.218Z,8.3
2023-03-24T06:59:39.532Z,8.3
2023-03-24T07:04:45.858Z,8.3
2023-03-24T07:09:52.201Z,8.6
2023-03-24T07:14:58.503Z,8
2023-03-24T07:20:04.862Z,8.3
2023-03-24T07:25:11.168Z,8.6
2023-03-24T07:30:17.517Z,7.6
2023-03-24T07:35:23.964Z,8.3
2023-03-24T07:40:29.278Z,8.6
2023-03-24T07:45:35.657Z,8.3
2023-03-24T07:50:41.896Z,8.6
2023-03-24T07:55:48.449Z,8.6
2023-03-24T08:00:54.578Z,8.3
2023-03-24T08:06:01.014Z,8.6
2023-03-24T08:11:07.187Z,8.6
2023-03-24T08:16:13.516Z,8.6
2023-03-24T08:21:19.836Z,8.6
2023-03-24T08:26:26.167Z,8.6
2023-03-24T08:31:32.483Z,8.9
2023-03-24T08:36:38.822Z,8.6
2023-03-24T08:41:45.105Z,8.6
2023-03-24T08:46:50.601Z,8.6
2023-03-24T08:51:56.882Z,8.6
2023-03-24T08:57:03.208Z,8.9
2023-03-24T09:02:09.515Z,8.3
2023-03-24T09:07:15.911Z,8.3
2023-03-24T09:12:22.195Z,8.6
2023-03-24T09:17:28.484Z,8.9
2023-03-24T09:22:34.828Z,8.9
2023-03-24T09:27:41.127Z,9.2
2023-03-24T09:32:47.448Z,8.9
2023-03-24T09:37:53.844Z,8.6
2023-03-24T09:43:00.080Z,8.6
2023-03-24T09:58:19.081Z,8.3
2023-03-24T10:03:25.434Z,9.2
2023-03-24T10:08:31.795Z,8.9
2023-03-24T10:13:38.085Z,8.6
2023-03-24T10:18:44.360Z,8.9
2023-03-24T10:23:49.808Z,8.9
2023-03-24T10:28:56.168Z,8.6
2023-03-24T10:34:02.567Z,8.6
2023-03-24T10:39:08.890Z,8.6
2023-03-24T10:44:15.182Z,8.9
2023-03-24T10:49:21.413Z,9.9
2023-03-24T10:54:27.807Z,8.6
2023-03-24T11:04:40.468Z,9.2
2023-03-24T11:09:46.758Z,8.9
2023-03-24T11:14:52.168Z,9.2
2023-03-24T11:19:58.492Z,9.2
2023-03-24T11:25:04.815Z,9.2
2023-03-24T11:30:10.261Z,9.2
2023-03-24T11:35:16.562Z,8.9
2023-03-24T11:40:22.975Z,8.9
2023-03-24T11:45:29.413Z,8.6
2023-03-24T11:50:35.565Z,9.9
2023-03-24T11:55:41.861Z,9.2
2023-03-24T12:00:48.178Z,9.2
2023-03-24T12:05:54.513Z,9.2
2023-03-24T12:11:00.017Z,9.6
2023-03-24T12:16:06.284Z,8.9
2023-03-24T12:21:11.732Z,9.6
2023-03-24T12:26:18.063Z,9.6
2023-03-24T12:31:24.369Z,9.2
2023-03-24T12:36:30.708Z,9.2
2023-03-24T12:41:37.028Z,9.6
2023-03-24T12:46:43.368Z,9.9
2023-03-24T12:51:49.670Z,9.2
2023-03-24T12:56:56.018Z,9.6
2023-03-24T13:02:02.315Z,9.6
2023-03-24T13:07:08.638Z,9.6
2023-03-24T13:12:14.967Z,9.2
2023-03-24T13:17:21.286Z,9.9
2023-03-24T13:22:27.595Z,9.9
2023-03-24T13:27:33.099Z,9.6
2023-03-24T13:32:39.350Z,9.6
2023-03-24T13:37:45.854Z,9.6
2023-03-24T13:42:52.167Z,9.2
2023-03-24T13:47:58.397Z,9.9
2023-03-24T13:53:04.663Z,9.2
2023-03-24T14:59:26.835Z,9.2
2023-03-24T15:04:32.296Z,9.9
2023-03-24T15:09:37.750Z,9.6
2023-03-24T15:14:44.059Z,9.9
2023-03-24T15:19:50.387Z,9.9
2023-03-24T15:24:56.833Z,9.6
2023-03-24T15:30:03.152Z,9.6
2023-03-24T15:35:09.518Z,9.6
2023-03-24T15:40:15.740Z,9.6
2023-03-24T15:45:21.989Z,9.2
2023-03-24T15:50:28.313Z,9.9
2023-03-24T15:55:34.618Z,9.6
2023-03-24T16:00:40.088Z,9.9
2023-03-24T16:05:45.685Z,9.2
2023-03-24T16:10:52.014Z,9.9
2023-03-24T16:15:58.226Z,9.9
2023-03-24T16:21:04.549Z,9.2
2023-03-24T16:26:10.898Z,9.6
2023-03-24T16:31:17.180Z,9.9
2023-03-24T16:36:23.486Z,9.9
2023-03-24T16:41:34.213Z,9.2
2023-03-24T16:46:36.153Z,9.6
2023-03-24T16:51:42.449Z,9.6
2023-03-24T16:56:47.959Z,9.6
2023-03-24T17:01:53.395Z,9.6
2023-03-24T17:06:59.764Z,9.6
2023-03-24T17:12:06.092Z,9.6
2023-03-24T17:17:12.313Z,9.9
2023-03-24T17:22:18.629Z,9.6
2023-03-24T17:27:24.961Z,9.9
2023-03-24T17:37:37.581Z,9.9
2023-03-24T17:42:43.919Z,9.6
2023-03-24T17:47:50.232Z,9.6
2023-03-24T17:52:56.566Z,9.6
2023-03-24T17:58:02.925Z,9.6
2023-03-24T18:03:09.198Z,9.6
2023-03-24T18:08:14.645Z,9.6
2023-03-24T18:13:20.982Z,9.9
2023-03-24T18:18:27.332Z,9.6
2023-03-24T18:23:33.612Z,9.6
2023-03-24T18:28:39.937Z,9.2
2023-03-24T18:33:46.264Z,9.6
2023-03-24T18:38:52.589Z,9.6
2023-03-24T18:43:58.912Z,9.6
2023-03-24T18:49:05.240Z,9.9
2023-03-24T18:54:11.572Z,9.2
2023-03-24T18:59:17.946Z,9.2
2023-03-24T19:04:24.210Z,9.2
2023-03-24T19:09:30.641Z,9.2
2023-03-24T19:14:35.991Z,9.6
2023-03-24T19:19:42.311Z,9.6
2023-03-24T19:24:48.643Z,9.6
2023-03-24T19:29:54.999Z,9.6
2023-03-24T19:35:01.296Z,9.2
2023-03-24T19:40:07.612Z,9.2
2023-03-24T19:45:13.922Z,9.6
2023-03-24T19:50:20.263Z,9.2
2023-03-24T19:55:26.584Z,9.2
2023-03-24T20:00:32.934Z,9.2
2023-03-24T20:05:39.299Z,9.2
2023-03-24T20:10:45.559Z,9.2
2023-03-24T20:15:51.885Z,8.9
2023-03-24T20:20:57.309Z,9.2
2023-03-24T20:26:03.643Z,8.6
2023-03-24T20:31:09.965Z,9.2
2023-03-24T20:36:16.273Z,9.2
2023-03-24T20:41:22.607Z,9.2
2023-03-24T20:46:28.942Z,9.2
2023-03-24T20:51:35.260Z,9.2
2023-03-24T20:56:41.571Z,9.2
2023-03-24T21:01:47.882Z,8.6
2023-03-24T21:06:54.225Z,9.2
2023-03-24T21:12:00.558Z,8.9
2023-03-24T21:17:06.871Z,9.2
2023-03-24T21:22:13.258Z,8.9
2023-03-24T21:27:19.536Z,8.6
2023-03-24T21:32:25.852Z,9.2
2023-03-24T21:37:31.317Z,8.9
2023-03-24T21:42:37.622Z,9.2
2023-03-24T21:47:43.967Z,9.2
2023-03-24T21:52:50.264Z,9.6
2023-03-24T21:57:56.589Z,8.6
2023-03-24T22:03:02.918Z,9.2
2023-03-24T22:08:09.255Z,8.9
2023-03-24T22:13:15.584Z,9.2
2023-03-24T22:18:21.912Z,8.6
2023-03-24T22:23:28.242Z,8.9
2023-03-24T22:28:34.554Z,9.6
2023-03-24T22:33:40.905Z,8.6
2023-03-24T22:38:47.197Z,8.6
2023-03-24T22:43:52.655Z,8.9
2023-03-24T22:48:59.017Z,9.2
2023-03-24T22:54:05.292Z,8.6
2023-03-24T22:59:11.630Z,8.6
2023-03-24T23:04:17.957Z,8.6
2023-03-24T23:09:24.269Z,8.9
2023-03-24T23:14:30.611Z,8.6
2023-03-24T23:19:36.927Z,8.6
2023-03-24T23:24:43.251Z,8.6
2023-03-24T23:29:49.592Z,8.9
2023-03-24T23:34:55.907Z,9.2
2023-03-24T23:40:02.224Z,8.9
2023-03-24T23:45:08.565Z,8.9
2023-03-24T23:50:14.017Z,8.9
2023-03-24T23:55:20.350Z,8.6
